KBBG

Branson Airport

Branson, Missouri, USA
METAR KBBG 180245Z 00000KT 3/4SM BR OVC002 07/07 A3008
Observed Flight Rules
Dec-18 @ 02:45 UTC (16 minutes ago) Instrument Flight Rules
Wind Visibility Clouds Conditions
Calm 3/4 miles
  • Overcast at 200' AGL
  • Mist
Temperatures Readings
Current 7°C / 45°F
Dewpoint 7°C / 45°F
Humidity 100%
Altimeter 30.08" Hg
Pressure 1019 hPa
Elevation 397
METAR KBBG 180245Z 00000KT 3/4SM BR OVC002 07/07 A3008
Observed Flight Rules
Dec-18 @ 02:45 UTC
(16 minutes ago)
LIFR
Wind Visibility
Calm 3/4 miles
Clouds
  • Overcast at 200' AGL
Conditions
  • Mist
Temperature Dewpoint
7°C / 45°F 7°C / 45°F
Humidity Altimeter Pressure
100% 30.08" Hg 1019 hPa